sensor_id;sensor_type;location;lat;lon;timestamp;temperature;humidity
46784;DHT22;32544;52.832;13.816;2023-03-22T00:00:26;23.50;46.20
46784;DHT22;32544;52.832;13.816;2023-03-22T00:01:28;23.50;46.20
46784;DHT22;32544;52.832;13.816;2023-03-22T00:02:30;23.40;46.20
46784;DHT22;32544;52.832;13.816;2023-03-22T00:03:32;23.50;46.20
46784;DHT22;32544;52.832;13.816;2023-03-22T00:04:33;23.50;46.20
46784;DHT22;32544;52.832;13.816;2023-03-22T00:05:33;23.50;46.20
46784;DHT22;32544;52.832;13.816;2023-03-22T00:06:34;23.50;46.20
46784;DHT22;32544;52.832;13.816;2023-03-22T00:07:34;23.50;46.20
46784;DHT22;32544;52.832;13.816;2023-03-22T00:08:37;23.50;46.20
46784;DHT22;32544;52.832;13.816;2023-03-22T00:09:37;23.50;46.20
46784;DHT22;32544;52.832;13.816;2023-03-22T00:10:39;23.50;46.20
46784;DHT22;32544;52.832;13.816;2023-03-22T00:11:39;23.50;46.30
46784;DHT22;32544;52.832;13.816;2023-03-22T00:12:40;23.50;46.20
46784;DHT22;32544;52.832;13.816;2023-03-22T00:13:41;23.50;46.20
46784;DHT22;32544;52.832;13.816;2023-03-22T00:14:43;23.50;46.20
46784;DHT22;32544;52.832;13.816;2023-03-22T00:15:45;23.40;46.20
46784;DHT22;32544;52.832;13.816;2023-03-22T00:16:48;23.50;46.20
46784;DHT22;32544;52.832;13.816;2023-03-22T00:17:48;23.50;46.20
46784;DHT22;32544;52.832;13.816;2023-03-22T00:18:52;23.50;46.20
46784;DHT22;32544;52.832;13.816;2023-03-22T00:19:53;23.50;46.20
46784;DHT22;32544;52.832;13.816;2023-03-22T00:20:57;23.50;46.20
46784;DHT22;32544;52.832;13.816;2023-03-22T00:21:58;23.50;46.20
46784;DHT22;32544;52.832;13.816;2023-03-22T00:23:00;23.40;46.10
46784;DHT22;32544;52.832;13.816;2023-03-22T00:24:00;23.50;46.20
46784;DHT22;32544;52.832;13.816;2023-03-22T00:25:01;23.50;46.20
46784;DHT22;32544;52.832;13.816;2023-03-22T00:26:02;23.50;46.20
46784;DHT22;32544;52.832;13.816;2023-03-22T00:27:03;23.50;46.20
46784;DHT22;32544;52.832;13.816;2023-03-22T00:28:03;23.50;46.20
46784;DHT22;32544;52.832;13.816;2023-03-22T00:29:04;23.50;46.30
46784;DHT22;32544;52.832;13.816;2023-03-22T00:30:05;23.50;46.20
46784;DHT22;32544;52.832;13.816;2023-03-22T00:31:06;23.50;46.30
46784;DHT22;32544;52.832;13.816;2023-03-22T00:32:06;23.50;46.30
46784;DHT22;32544;52.832;13.816;2023-03-22T00:33:08;23.50;46.30
46784;DHT22;32544;52.832;13.816;2023-03-22T00:34:08;23.50;46.30
46784;DHT22;32544;52.832;13.816;2023-03-22T00:35:09;23.50;46.20
46784;DHT22;32544;52.832;13.816;2023-03-22T00:36:10;23.50;46.30
46784;DHT22;32544;52.832;13.816;2023-03-22T00:37:11;23.50;46.30
46784;DHT22;32544;52.832;13.816;2023-03-22T00:38:12;23.50;46.20
46784;DHT22;32544;52.832;13.816;2023-03-22T00:39:13;23.50;46.30
46784;DHT22;32544;52.832;13.816;2023-03-22T00:40:13;23.50;46.20
46784;DHT22;32544;52.832;13.816;2023-03-22T00:41:18;23.50;46.20
46784;DHT22;32544;52.832;13.816;2023-03-22T00:42:19;23.50;46.30
46784;DHT22;32544;52.832;13.816;2023-03-22T00:43:22;23.50;46.20
46784;DHT22;32544;52.832;13.816;2023-03-22T00:44:23;23.50;46.20
46784;DHT22;32544;52.832;13.816;2023-03-22T00:45:24;23.50;46.20
46784;DHT22;32544;52.832;13.816;2023-03-22T00:46:26;23.50;46.20
46784;DHT22;32544;52.832;13.816;2023-03-22T00:47:26;23.50;46.20
46784;DHT22;32544;52.832;13.816;2023-03-22T00:48:27;23.50;46.20
46784;DHT22;32544;52.832;13.816;2023-03-22T00:49:28;23.50;46.20
46784;DHT22;32544;52.832;13.816;2023-03-22T00:50:29;23.50;46.20
46784;DHT22;32544;52.832;13.816;2023-03-22T00:51:30;23.50;46.20
46784;DHT22;32544;52.832;13.816;2023-03-22T00:52:31;23.50;46.20
46784;DHT22;32544;52.832;13.816;2023-03-22T00:53:32;23.50;46.20
46784;DHT22;32544;52.832;13.816;2023-03-22T00:54:34;23.50;46.20
46784;DHT22;32544;52.832;13.816;2023-03-22T00:55:35;23.50;46.20
46784;DHT22;32544;52.832;13.816;2023-03-22T00:56:36;23.50;46.30
46784;DHT22;32544;52.832;13.816;2023-03-22T00:57:47;23.50;46.80
46784;DHT22;32544;52.832;13.816;2023-03-22T00:58:48;23.50;46.20
46784;DHT22;32544;52.832;13.816;2023-03-22T00:59:49;23.50;46.20
46784;DHT22;32544;52.832;13.816;2023-03-22T01:00:50;23.40;46.20
46784;DHT22;32544;52.832;13.816;2023-03-22T01:01:50;23.50;46.20
46784;DHT22;32544;52.832;13.816;2023-03-22T01:02:51;23.50;46.30
46784;DHT22;32544;52.832;13.816;2023-03-22T01:03:59;23.50;46.20
46784;DHT22;32544;52.832;13.816;2023-03-22T01:04:59;23.50;46.20
46784;DHT22;32544;52.832;13.816;2023-03-22T01:06:00;23.50;46.30
46784;DHT22;32544;52.832;13.816;2023-03-22T01:07:01;23.50;46.20
46784;DHT22;32544;52.832;13.816;2023-03-22T01:08:05;23.50;46.30
46784;DHT22;32544;52.832;13.816;2023-03-22T01:09:07;23.50;46.20
46784;DHT22;32544;52.832;13.816;2023-03-22T01:10:08;23.50;46.20
46784;DHT22;32544;52.832;13.816;2023-03-22T01:11:11;23.50;46.20
46784;DHT22;32544;52.832;13.816;2023-03-22T01:12:12;23.50;46.20
46784;DHT22;32544;52.832;13.816;2023-03-22T01:13:13;23.50;46.20
46784;DHT22;32544;52.832;13.816;2023-03-22T01:14:14;23.50;46.20
46784;DHT22;32544;52.832;13.816;2023-03-22T01:15:14;23.50;46.20
46784;DHT22;32544;52.832;13.816;2023-03-22T01:16:15;23.50;46.20
46784;DHT22;32544;52.832;13.816;2023-03-22T01:17:16;23.50;46.20
46784;DHT22;32544;52.832;13.816;2023-03-22T01:18:17;23.50;46.20
46784;DHT22;32544;52.832;13.816;2023-03-22T01:19:17;23.50;46.20
46784;DHT22;32544;52.832;13.816;2023-03-22T01:20:18;23.50;46.20
46784;DHT22;32544;52.832;13.816;2023-03-22T01:21:19;23.50;46.20
46784;DHT22;32544;52.832;13.816;2023-03-22T01:22:20;23.50;46.20
46784;DHT22;32544;52.832;13.816;2023-03-22T01:23:21;23.50;46.20
46784;DHT22;32544;52.832;13.816;2023-03-22T01:24:21;23.50;46.20
46784;DHT22;32544;52.832;13.816;2023-03-22T01:25:22;23.30;46.10
46784;DHT22;32544;52.832;13.816;2023-03-22T01:26:23;23.50;46.20
46784;DHT22;32544;52.832;13.816;2023-03-22T01:27:23;23.50;46.20
46784;DHT22;32544;52.832;13.816;2023-03-22T01:28:24;23.40;46.20
46784;DHT22;32544;52.832;13.816;2023-03-22T01:29:25;23.40;46.10
46784;DHT22;32544;52.832;13.816;2023-03-22T01:30:25;23.40;46.20
46784;DHT22;32544;52.832;13.816;2023-03-22T01:31:26;23.40;46.10
46784;DHT22;32544;52.832;13.816;2023-03-22T01:32:27;23.50;46.20
46784;DHT22;32544;52.832;13.816;2023-03-22T01:33:28;23.40;46.10
46784;DHT22;32544;52.832;13.816;2023-03-22T01:34:28;23.40;46.20
46784;DHT22;32544;52.832;13.816;2023-03-22T01:35:30;23.40;46.10
46784;DHT22;32544;52.832;13.816;2023-03-22T01:36:32;23.40;46.10
46784;DHT22;32544;52.832;13.816;2023-03-22T01:37:33;23.40;46.20
46784;DHT22;32544;52.832;13.816;2023-03-22T01:38:34;23.50;46.20
46784;DHT22;32544;52.832;13.816;2023-03-22T01:39:35;23.40;46.10
46784;DHT22;32544;52.832;13.816;2023-03-22T01:40:39;23.40;46.10
46784;DHT22;32544;52.832;13.816;2023-03-22T01:41:41;23.40;46.20
46784;DHT22;32544;52.832;13.816;2023-03-22T01:42:47;23.40;46.20
46784;DHT22;32544;52.832;13.816;2023-03-22T01:46:14;23.40;46.10
46784;DHT22;32544;52.832;13.816;2023-03-22T01:47:14;23.40;46.10
46784;DHT22;32544;52.832;13.816;2023-03-22T01:49:17;23.40;46.10
46784;DHT22;32544;52.832;13.816;2023-03-22T01:50:19;23.40;46.20
46784;DHT22;32544;52.832;13.816;2023-03-22T01:51:21;23.40;46.10
46784;DHT22;32544;52.832;13.816;2023-03-22T01:52:56;23.40;46.10
46784;DHT22;32544;52.832;13.816;2023-03-22T01:54:04;23.40;46.10
46784;DHT22;32544;52.832;13.816;2023-03-22T01:55:06;23.40;46.10
46784;DHT22;32544;52.832;13.816;2023-03-22T01:56:17;23.40;46.20
46784;DHT22;32544;52.832;13.816;2023-03-22T01:57:19;23.40;46.10
46784;DHT22;32544;52.832;13.816;2023-03-22T01:58:20;23.40;46.10
46784;DHT22;32544;52.832;13.816;2023-03-22T01:59:25;23.40;46.20
46784;DHT22;32544;52.832;13.816;2023-03-22T02:00:39;23.40;46.20
46784;DHT22;32544;52.832;13.816;2023-03-22T02:02:02;23.40;46.20
46784;DHT22;32544;52.832;13.816;2023-03-22T02:03:04;23.40;46.20
46784;DHT22;32544;52.832;13.816;2023-03-22T02:04:11;23.20;46.10
46784;DHT22;32544;52.832;13.816;2023-03-22T02:05:13;23.40;46.20
46784;DHT22;32544;52.832;13.816;2023-03-22T02:06:15;23.40;46.10
46784;DHT22;32544;52.832;13.816;2023-03-22T02:07:16;23.40;46.10
46784;DHT22;32544;52.832;13.816;2023-03-22T02:08:25;23.40;46.10
46784;DHT22;32544;52.832;13.816;2023-03-22T02:09:32;23.40;46.10
46784;DHT22;32544;52.832;13.816;2023-03-22T02:10:33;23.40;46.10
46784;DHT22;32544;52.832;13.816;2023-03-22T02:11:40;23.40;46.10
46784;DHT22;32544;52.832;13.816;2023-03-22T02:12:56;23.40;46.20
46784;DHT22;32544;52.832;13.816;2023-03-22T02:14:30;23.40;46.10
46784;DHT22;32544;52.832;13.816;2023-03-22T02:24:26;23.40;46.20
46784;DHT22;32544;52.832;13.816;2023-03-22T02:34:23;23.30;46.20
46784;DHT22;32544;52.832;13.816;2023-03-22T02:35:35;23.30;46.30
46784;DHT22;32544;52.832;13.816;2023-03-22T02:39:20;23.30;46.30
46784;DHT22;32544;52.832;13.816;2023-03-22T02:44:06;23.30;46.30
46784;DHT22;32544;52.832;13.816;2023-03-22T02:46:14;23.30;46.30
46784;DHT22;32544;52.832;13.816;2023-03-22T02:50:34;23.30;46.40
46784;DHT22;32544;52.832;13.816;2023-03-22T02:51:41;23.30;46.40
46784;DHT22;32544;52.832;13.816;2023-03-22T02:53:55;23.10;46.30
46784;DHT22;32544;52.832;13.816;2023-03-22T02:56:10;23.20;46.40
46784;DHT22;32544;52.832;13.816;2023-03-22T02:57:24;23.20;46.40
46784;DHT22;32544;52.832;13.816;2023-03-22T02:58:32;23.20;46.40
46784;DHT22;32544;52.832;13.816;2023-03-22T02:59:34;23.20;46.40
46784;DHT22;32544;52.832;13.816;2023-03-22T03:00:39;23.20;46.40
46784;DHT22;32544;52.832;13.816;2023-03-22T03:01:42;23.20;46.40
46784;DHT22;32544;52.832;13.816;2023-03-22T03:02:46;23.20;46.40
46784;DHT22;32544;52.832;13.816;2023-03-22T03:03:48;23.20;46.30
46784;DHT22;32544;52.832;13.816;2023-03-22T03:04:50;23.30;46.40
46784;DHT22;32544;52.832;13.816;2023-03-22T03:05:53;23.30;46.40
46784;DHT22;32544;52.832;13.816;2023-03-22T03:06:58;23.30;46.30
46784;DHT22;32544;52.832;13.816;2023-03-22T03:07:59;23.30;46.30
46784;DHT22;32544;52.832;13.816;2023-03-22T03:09:02;23.30;46.20
46784;DHT22;32544;52.832;13.816;2023-03-22T03:10:05;23.30;46.20
46784;DHT22;32544;52.832;13.816;2023-03-22T03:11:07;23.30;46.20
46784;DHT22;32544;52.832;13.816;2023-03-22T03:12:08;23.30;46.20
46784;DHT22;32544;52.832;13.816;2023-03-22T03:13:13;23.40;46.20
46784;DHT22;32544;52.832;13.816;2023-03-22T03:14:18;23.40;46.20
46784;DHT22;32544;52.832;13.816;2023-03-22T03:15:20;23.40;46.20
46784;DHT22;32544;52.832;13.816;2023-03-22T03:16:22;23.40;46.10
46784;DHT22;32544;52.832;13.816;2023-03-22T03:17:32;23.30;46.10
46784;DHT22;32544;52.832;13.816;2023-03-22T03:21:06;23.40;46.70
46784;DHT22;32544;52.832;13.816;2023-03-22T03:22:14;23.40;46.10
46784;DHT22;32544;52.832;13.816;2023-03-22T03:27:23;23.40;46.10
46784;DHT22;32544;52.832;13.816;2023-03-22T03:29:38;23.40;46.20
46784;DHT22;32544;52.832;13.816;2023-03-22T03:30:45;23.40;46.10
46784;DHT22;32544;52.832;13.816;2023-03-22T03:32:55;23.50;46.10
46784;DHT22;32544;52.832;13.816;2023-03-22T03:34:01;23.50;46.10
46784;DHT22;32544;52.832;13.816;2023-03-22T03:35:10;23.50;46.00
46784;DHT22;32544;52.832;13.816;2023-03-22T03:36:21;23.50;45.90
46784;DHT22;32544;52.832;13.816;2023-03-22T03:37:26;23.50;45.90
46784;DHT22;32544;52.832;13.816;2023-03-22T03:38:30;23.60;45.90
46784;DHT22;32544;52.832;13.816;2023-03-22T03:39:34;23.60;45.80
46784;DHT22;32544;52.832;13.816;2023-03-22T03:40:39;23.60;45.80
46784;DHT22;32544;52.832;13.816;2023-03-22T03:41:41;23.60;45.80
46784;DHT22;32544;52.832;13.816;2023-03-22T03:42:44;23.70;45.80
46784;DHT22;32544;52.832;13.816;2023-03-22T03:43:47;23.70;45.70
46784;DHT22;32544;52.832;13.816;2023-03-22T03:44:48;23.70;45.70
46784;DHT22;32544;52.832;13.816;2023-03-22T03:45:48;23.70;45.60
46784;DHT22;32544;52.832;13.816;2023-03-22T03:46:49;23.70;45.60
46784;DHT22;32544;52.832;13.816;2023-03-22T03:47:51;23.70;45.80
46784;DHT22;32544;52.832;13.816;2023-03-22T03:48:56;23.80;45.60
46784;DHT22;32544;52.832;13.816;2023-03-22T03:49:57;23.70;45.50
46784;DHT22;32544;52.832;13.816;2023-03-22T03:50:58;23.80;45.50
46784;DHT22;32544;52.832;13.816;2023-03-22T03:51:59;23.80;45.50
46784;DHT22;32544;52.832;13.816;2023-03-22T03:53:00;23.80;45.50
46784;DHT22;32544;52.832;13.816;2023-03-22T03:54:00;23.80;45.50
46784;DHT22;32544;52.832;13.816;2023-03-22T03:55:01;23.80;45.50
46784;DHT22;32544;52.832;13.816;2023-03-22T03:56:06;23.80;45.40
46784;DHT22;32544;52.832;13.816;2023-03-22T03:57:12;23.80;45.40
46784;DHT22;32544;52.832;13.816;2023-03-22T03:58:12;23.80;45.40
46784;DHT22;32544;52.832;13.816;2023-03-22T03:59:16;23.80;45.40
46784;DHT22;32544;52.832;13.816;2023-03-22T04:00:18;23.80;45.40
46784;DHT22;32544;52.832;13.816;2023-03-22T04:01:38;23.80;45.40
46784;DHT22;32544;52.832;13.816;2023-03-22T04:02:48;23.80;45.40
46784;DHT22;32544;52.832;13.816;2023-03-22T04:04:13;23.80;45.40
46784;DHT22;32544;52.832;13.816;2023-03-22T04:05:23;23.80;45.40
46784;DHT22;32544;52.832;13.816;2023-03-22T04:06:24;23.80;45.40
46784;DHT22;32544;52.832;13.816;2023-03-22T04:07:29;23.80;45.50
46784;DHT22;32544;52.832;13.816;2023-03-22T04:08:30;23.80;45.80
46784;DHT22;32544;52.832;13.816;2023-03-22T04:09:32;23.80;45.50
46784;DHT22;32544;52.832;13.816;2023-03-22T04:10:47;23.80;45.50
46784;DHT22;32544;52.832;13.816;2023-03-22T04:11:48;23.70;45.50
46784;DHT22;32544;52.832;13.816;2023-03-22T04:12:49;23.80;45.60
46784;DHT22;32544;52.832;13.816;2023-03-22T04:13:51;23.70;45.50
46784;DHT22;32544;52.832;13.816;2023-03-22T04:14:55;23.70;45.60
46784;DHT22;32544;52.832;13.816;2023-03-22T04:15:58;23.70;45.60
46784;DHT22;32544;52.832;13.816;2023-03-22T04:17:02;23.70;45.60
46784;DHT22;32544;52.832;13.816;2023-03-22T04:18:03;23.70;45.60
46784;DHT22;32544;52.832;13.816;2023-03-22T04:19:05;23.70;45.60
46784;DHT22;32544;52.832;13.816;2023-03-22T04:20:06;23.70;45.60
46784;DHT22;32544;52.832;13.816;2023-03-22T04:21:08;23.70;45.60
46784;DHT22;32544;52.832;13.816;2023-03-22T04:22:21;23.70;45.60
46784;DHT22;32544;52.832;13.816;2023-03-22T04:23:22;23.70;45.60
46784;DHT22;32544;52.832;13.816;2023-03-22T04:24:25;23.70;45.60
46784;DHT22;32544;52.832;13.816;2023-03-22T04:25:26;23.70;45.60
46784;DHT22;32544;52.832;13.816;2023-03-22T04:26:38;23.70;45.70
46784;DHT22;32544;52.832;13.816;2023-03-22T04:27:47;23.60;45.60
46784;DHT22;32544;52.832;13.816;2023-03-22T04:28:51;23.60;45.70
46784;DHT22;32544;52.832;13.816;2023-03-22T04:29:51;23.60;45.70
46784;DHT22;32544;52.832;13.816;2023-03-22T04:31:30;23.60;45.80
46784;DHT22;32544;52.832;13.816;2023-03-22T04:32:38;23.60;45.70
46784;DHT22;32544;52.832;13.816;2023-03-22T04:33:38;23.60;45.80
46784;DHT22;32544;52.832;13.816;2023-03-22T04:34:51;23.60;45.80
46784;DHT22;32544;52.832;13.816;2023-03-22T04:35:53;23.60;45.80
46784;DHT22;32544;52.832;13.816;2023-03-22T04:36:56;23.60;46.40
46784;DHT22;32544;52.832;13.816;2023-03-22T04:38:01;23.60;45.80
46784;DHT22;32544;52.832;13.816;2023-03-22T04:39:03;23.60;45.80
46784;DHT22;32544;52.832;13.816;2023-03-22T04:40:05;23.60;45.90
46784;DHT22;32544;52.832;13.816;2023-03-22T04:41:39;23.60;45.90
46784;DHT22;32544;52.832;13.816;2023-03-22T04:42:40;23.60;45.90
46784;DHT22;32544;52.832;13.816;2023-03-22T04:43:49;23.60;45.90
46784;DHT22;32544;52.832;13.816;2023-03-22T04:44:51;23.60;45.90
46784;DHT22;32544;52.832;13.816;2023-03-22T04:45:51;23.50;45.90
46784;DHT22;32544;52.832;13.816;2023-03-22T04:46:56;23.50;45.90
46784;DHT22;32544;52.832;13.816;2023-03-22T04:47:57;23.50;45.90
46784;DHT22;32544;52.832;13.816;2023-03-22T04:48:58;23.50;45.90
46784;DHT22;32544;52.832;13.816;2023-03-22T04:50:00;23.50;45.90
46784;DHT22;32544;52.832;13.816;2023-03-22T04:51:04;23.50;45.90
46784;DHT22;32544;52.832;13.816;2023-03-22T04:52:11;23.50;45.90
46784;DHT22;32544;52.832;13.816;2023-03-22T04:53:13;23.50;45.90
46784;DHT22;32544;52.832;13.816;2023-03-22T04:54:15;23.50;45.90
46784;DHT22;32544;52.832;13.816;2023-03-22T04:55:17;23.50;45.90
46784;DHT22;32544;52.832;13.816;2023-03-22T04:56:19;23.50;46.50
46784;DHT22;32544;52.832;13.816;2023-03-22T04:57:22;23.50;45.90
46784;DHT22;32544;52.832;13.816;2023-03-22T04:58:24;23.50;45.90
46784;DHT22;32544;52.832;13.816;2023-03-22T04:59:25;23.50;45.90
46784;DHT22;32544;52.832;13.816;2023-03-22T05:00:26;23.50;45.90
46784;DHT22;32544;52.832;13.816;2023-03-22T05:01:29;23.50;45.90
46784;DHT22;32544;52.832;13.816;2023-03-22T05:02:41;23.50;45.90
46784;DHT22;32544;52.832;13.816;2023-03-22T05:03:49;23.50;45.90
46784;DHT22;32544;52.832;13.816;2023-03-22T05:04:55;23.50;45.90
46784;DHT22;32544;52.832;13.816;2023-03-22T05:06:07;23.50;45.90
46784;DHT22;32544;52.832;13.816;2023-03-22T05:07:26;23.50;45.90
46784;DHT22;32544;52.832;13.816;2023-03-22T05:08:30;23.50;45.90
46784;DHT22;32544;52.832;13.816;2023-03-22T05:09:30;23.50;45.90
46784;DHT22;32544;52.832;13.816;2023-03-22T05:10:32;23.50;46.00
46784;DHT22;32544;52.832;13.816;2023-03-22T05:11:33;23.40;45.90
46784;DHT22;32544;52.832;13.816;2023-03-22T05:13:03;23.50;46.00
46784;DHT22;32544;52.832;13.816;2023-03-22T05:14:13;23.50;45.90
46784;DHT22;32544;52.832;13.816;2023-03-22T05:15:14;23.50;46.00
46784;DHT22;32544;52.832;13.816;2023-03-22T05:16:16;23.50;46.00
46784;DHT22;32544;52.832;13.816;2023-03-22T05:17:22;23.50;46.00
46784;DHT22;32544;52.832;13.816;2023-03-22T05:18:24;23.50;46.00
46784;DHT22;32544;52.832;13.816;2023-03-22T05:19:27;23.50;46.00
46784;DHT22;32544;52.832;13.816;2023-03-22T05:20:28;23.50;46.00
46784;DHT22;32544;52.832;13.816;2023-03-22T05:21:54;23.50;46.00
46784;DHT22;32544;52.832;13.816;2023-03-22T05:22:58;23.50;46.00
46784;DHT22;32544;52.832;13.816;2023-03-22T05:24:02;23.50;46.00
46784;DHT22;32544;52.832;13.816;2023-03-22T05:25:04;23.50;46.00
46784;DHT22;32544;52.832;13.816;2023-03-22T05:26:04;23.50;46.00
46784;DHT22;32544;52.832;13.816;2023-03-22T05:27:07;23.50;46.00
46784;DHT22;32544;52.832;13.816;2023-03-22T05:28:10;23.40;45.90
46784;DHT22;32544;52.832;13.816;2023-03-22T05:29:27;23.50;46.00
46784;DHT22;32544;52.832;13.816;2023-03-22T05:30:39;23.50;46.00
46784;DHT22;32544;52.832;13.816;2023-03-22T05:32:02;23.50;46.00
46784;DHT22;32544;52.832;13.816;2023-03-22T05:33:03;23.50;46.00
46784;DHT22;32544;52.832;13.816;2023-03-22T05:34:08;23.40;46.00
46784;DHT22;32544;52.832;13.816;2023-03-22T05:35:11;23.50;46.00
46784;DHT22;32544;52.832;13.816;2023-03-22T05:36:16;23.40;45.90
46784;DHT22;32544;52.832;13.816;2023-03-22T05:37:37;23.40;46.00
46784;DHT22;32544;52.832;13.816;2023-03-22T05:38:38;23.40;46.00
46784;DHT22;32544;52.832;13.816;2023-03-22T05:39:39;23.50;46.10
46784;DHT22;32544;52.832;13.816;2023-03-22T05:40:41;23.50;46.00
46784;DHT22;32544;52.832;13.816;2023-03-22T05:41:41;23.50;46.10
46784;DHT22;32544;52.832;13.816;2023-03-22T05:42:43;23.50;46.00
46784;DHT22;32544;52.832;13.816;2023-03-22T05:43:50;23.50;46.00
46784;DHT22;32544;52.832;13.816;2023-03-22T05:44:52;23.50;46.00
46784;DHT22;32544;52.832;13.816;2023-03-22T05:45:53;23.50;46.00
46784;DHT22;32544;52.832;13.816;2023-03-22T05:47:12;23.50;46.00
46784;DHT22;32544;52.832;13.816;2023-03-22T05:48:22;23.50;46.00
46784;DHT22;32544;52.832;13.816;2023-03-22T05:49:23;23.50;46.00
46784;DHT22;32544;52.832;13.816;2023-03-22T05:50:26;23.50;46.00
46784;DHT22;32544;52.832;13.816;2023-03-22T05:51:26;23.50;46.00
46784;DHT22;32544;52.832;13.816;2023-03-22T05:52:27;23.50;46.00
46784;DHT22;32544;52.832;13.816;2023-03-22T05:53:49;23.50;46.00
46784;DHT22;32544;52.832;13.816;2023-03-22T05:54:58;23.50;46.00
46784;DHT22;32544;52.832;13.816;2023-03-22T05:55:58;23.50;46.00
46784;DHT22;32544;52.832;13.816;2023-03-22T05:57:00;23.50;46.00
46784;DHT22;32544;52.832;13.816;2023-03-22T05:58:01;23.50;46.00
46784;DHT22;32544;52.832;13.816;2023-03-22T05:59:04;23.50;45.90
46784;DHT22;32544;52.832;13.816;2023-03-22T06:00:06;23.50;45.90
46784;DHT22;32544;52.832;13.816;2023-03-22T06:01:24;23.50;45.90
46784;DHT22;32544;52.832;13.816;2023-03-22T06:02:44;23.50;46.00
46784;DHT22;32544;52.832;13.816;2023-03-22T06:03:46;23.50;46.00
46784;DHT22;32544;52.832;13.816;2023-03-22T06:05:02;23.50;46.00
46784;DHT22;32544;52.832;13.816;2023-03-22T06:06:05;23.50;46.00
46784;DHT22;32544;52.832;13.816;2023-03-22T06:07:15;23.50;46.00
46784;DHT22;32544;52.832;13.816;2023-03-22T06:08:26;23.50;45.90
46784;DHT22;32544;52.832;13.816;2023-03-22T06:09:27;23.50;45.90
46784;DHT22;32544;52.832;13.816;2023-03-22T06:10:28;23.50;46.10
46784;DHT22;32544;52.832;13.816;2023-03-22T06:11:29;23.50;45.90
46784;DHT22;32544;52.832;13.816;2023-03-22T06:12:35;23.50;45.90
46784;DHT22;32544;52.832;13.816;2023-03-22T06:13:43;23.50;45.90
46784;DHT22;32544;52.832;13.816;2023-03-22T06:14:45;23.50;45.90
46784;DHT22;32544;52.832;13.816;2023-03-22T06:16:06;23.50;45.90
46784;DHT22;32544;52.832;13.816;2023-03-22T06:17:07;23.50;45.90
46784;DHT22;32544;52.832;13.816;2023-03-22T06:18:08;23.50;45.90
46784;DHT22;32544;52.832;13.816;2023-03-22T06:19:15;23.50;45.90
46784;DHT22;32544;52.832;13.816;2023-03-22T06:20:16;23.50;45.90
46784;DHT22;32544;52.832;13.816;2023-03-22T06:21:24;23.50;46.00
46784;DHT22;32544;52.832;13.816;2023-03-22T06:22:25;23.50;45.90
46784;DHT22;32544;52.832;13.816;2023-03-22T06:23:26;23.50;45.90
46784;DHT22;32544;52.832;13.816;2023-03-22T06:24:27;23.50;45.90
46784;DHT22;32544;52.832;13.816;2023-03-22T06:25:28;23.50;46.00
46784;DHT22;32544;52.832;13.816;2023-03-22T06:26:29;23.50;45.90
46784;DHT22;32544;52.832;13.816;2023-03-22T06:27:30;23.50;45.90
46784;DHT22;32544;52.832;13.816;2023-03-22T06:28:31;23.50;46.00
46784;DHT22;32544;52.832;13.816;2023-03-22T06:29:32;23.50;46.00
46784;DHT22;32544;52.832;13.816;2023-03-22T06:30:35;23.50;46.00
46784;DHT22;32544;52.832;13.816;2023-03-22T06:31:59;23.50;46.00
46784;DHT22;32544;52.832;13.816;2023-03-22T06:33:00;23.50;46.00
46784;DHT22;32544;52.832;13.816;2023-03-22T06:34:05;23.50;46.00
46784;DHT22;32544;52.832;13.816;2023-03-22T06:35:11;23.40;46.00
46784;DHT22;32544;52.832;13.816;2023-03-22T06:36:12;23.50;46.10
46784;DHT22;32544;52.832;13.816;2023-03-22T06:37:26;23.50;46.10
46784;DHT22;32544;52.832;13.816;2023-03-22T06:38:28;23.50;46.00
46784;DHT22;32544;52.832;13.816;2023-03-22T06:39:29;23.50;46.10
46784;DHT22;32544;52.832;13.816;2023-03-22T06:40:30;23.50;46.10
46784;DHT22;32544;52.832;13.816;2023-03-22T06:41:30;23.50;46.20
46784;DHT22;32544;52.832;13.816;2023-03-22T06:42:31;23.50;46.10
46784;DHT22;32544;52.832;13.816;2023-03-22T06:43:39;23.50;46.10
46784;DHT22;32544;52.832;13.816;2023-03-22T06:44:53;23.50;46.10
46784;DHT22;32544;52.832;13.816;2023-03-22T06:46:06;23.50;46.20
46784;DHT22;32544;52.832;13.816;2023-03-22T06:47:16;23.50;46.10
46784;DHT22;32544;52.832;13.816;2023-03-22T06:48:23;23.50;46.10
46784;DHT22;32544;52.832;13.816;2023-03-22T06:49:32;23.50;46.20
46784;DHT22;32544;52.832;13.816;2023-03-22T06:50:33;23.50;46.20
46784;DHT22;32544;52.832;13.816;2023-03-22T06:51:45;23.50;46.10
46784;DHT22;32544;52.832;13.816;2023-03-22T06:52:45;23.50;46.20
46784;DHT22;32544;52.832;13.816;2023-03-22T06:53:46;23.40;46.10
46784;DHT22;32544;52.832;13.816;2023-03-22T06:54:47;23.50;46.20
46784;DHT22;32544;52.832;13.816;2023-03-22T06:55:48;23.40;46.00
46784;DHT22;32544;52.832;13.816;2023-03-22T06:56:52;23.50;46.20
46784;DHT22;32544;52.832;13.816;2023-03-22T06:57:53;23.50;46.20
46784;DHT22;32544;52.832;13.816;2023-03-22T06:58:54;23.50;46.10
46784;DHT22;32544;52.832;13.816;2023-03-22T06:59:57;23.50;46.20
46784;DHT22;32544;52.832;13.816;2023-03-22T07:00:58;23.50;46.20
46784;DHT22;32544;52.832;13.816;2023-03-22T07:02:00;23.50;46.30
46784;DHT22;32544;52.832;13.816;2023-03-22T07:03:00;23.50;46.20
46784;DHT22;32544;52.832;13.816;2023-03-22T07:04:07;23.50;46.20
46784;DHT22;32544;52.832;13.816;2023-03-22T07:05:08;23.50;46.20
46784;DHT22;32544;52.832;13.816;2023-03-22T07:06:08;23.50;46.20
46784;DHT22;32544;52.832;13.816;2023-03-22T07:07:12;23.40;46.20
46784;DHT22;32544;52.832;13.816;2023-03-22T07:08:14;23.40;46.30
46784;DHT22;32544;52.832;13.816;2023-03-22T07:09:21;23.40;46.30
46784;DHT22;32544;52.832;13.816;2023-03-22T07:10:24;23.40;46.30
46784;DHT22;32544;52.832;13.816;2023-03-22T07:11:25;23.50;46.40
46784;DHT22;32544;52.832;13.816;2023-03-22T07:12:32;23.50;46.50
46784;DHT22;32544;52.832;13.816;2023-03-22T07:13:37;23.50;46.50
46784;DHT22;32544;52.832;13.816;2023-03-22T07:14:43;23.50;46.50
46784;DHT22;32544;52.832;13.816;2023-03-22T07:15:57;23.50;46.60
46784;DHT22;32544;52.832;13.816;2023-03-22T07:17:18;23.50;46.60
46784;DHT22;32544;52.832;13.816;2023-03-22T07:18:18;23.50;46.60
46784;DHT22;32544;52.832;13.816;2023-03-22T07:19:19;23.50;46.60
46784;DHT22;32544;52.832;13.816;2023-03-22T07:20:20;23.50;46.60
46784;DHT22;32544;52.832;13.816;2023-03-22T07:21:22;23.50;46.60
46784;DHT22;32544;52.832;13.816;2023-03-22T07:22:28;23.50;46.60